マナグア の空港の天気 - METARとTAF

マナグア国際空港 ( MNMG / MGA ) - ニカラグア マナグア県マナグア
飛行場実況気象(Metar)
観測時間01/24 06:00 CST (01/24 12:00 UTC)
風向・風速南 3m/s
視程10km以上
天気現象
少しの雲 雲底高度 700m
気温21℃
湿度88%
気圧1012hPa
METARMNMG 241200Z 17006KT 9999 FEW023 21/19 Q1012 A2991 NOSIG
過去の天気等 Google飛行場航空写真 Wunderground天気予報

過去48時間のMETAR

飛行場予報(TAF)
発表時間: 1/24 02:17 CST (1/24 08:17 UTC)
予報対象時間: 24日6時 CST ~ 25日6時 CST
風向・風速東南東 2m/s
視程10km以上
少しの雲 雲底高度 640m
24日8時 CST ~ 24日16時 CST に一時的に
風向・風速東 5m/s
少しの雲 雲底高度 730m
24日17時 CST ~ 24日21時 CST に徐々に
風向・風速東南東 4m/s
MNMG 240817Z 2412/2512 12004KT 9999 FEW021
TEMPO 2414/2422 09010KT FEW024
BECMG 2423/2503 11008KT